Observation data for Floydada on 07/12/2020      Previous  Date  Next       Current Mesonet Observations  Soil Data  Daily Summary Page  Observations in Plain Language
KFLS 120500Z 18010KT 30/10 A30 RMK A01 T03020097  RH  029%=      5-min Rain = 0
KFLS 120505Z 18010KT 30/10 A2999 RMK A01 T03010098  RH  029%=      5-min Rain = 0
KFLS 120510Z 19012KT 30/10 A2999 RMK A01 T03010099  RH  029%=      5-min Rain = 0
KFLS 120515Z 19011KT 30/10 A2999 RMK A01 T03010099  RH  029%=      5-min Rain = 0
KFLS 120520Z 19010KT 30/10 A2999 RMK A01 T03010099  RH  029%=      5-min Rain = 0
KFLS 120525Z 20010KT 30/10 A30 RMK A01 T03000100  RH  029%=      5-min Rain = 0
KFLS 120530Z 21008KT 30/10 A3001 RMK A01 T02990101  RH  030%=      5-min Rain = 0
KFLS 120535Z 29009G14KT 30/10 A3003 RMK A01 T02980101  RH  030%=      5-min Rain = 0
KFLS 120540Z 34012KT 29/10 A3005 RMK A01 T02860101  RH  032%=      5-min Rain = 0
KFLS 120545Z 31006G13KT 29/10 A3005 RMK A01 T02940098  RH  030%=      5-min Rain = 0
KFLS 120550Z 27005KT 31/10 A3006 RMK A01 T03120096  RH  027%=      5-min Rain = 0
KFLS 120555Z 32011KT 31/10 A3007 RMK A01 T03110098  RH  027%=      5-min Rain = 0
KFLS 120600Z 33009KT 31/10 A3008 RMK A01 T03120099  RH  027%=      5-min Rain = 0
KFLS 120605Z 34005KT 31/10 A3008 RMK A01 T03140098  RH  027%=      5-min Rain = 0
KFLS 120610Z 35001KT 31/10 A3008 RMK A01 T03110099  RH  027%=      5-min Rain = 0
KFLS 120615Z 26002KT 31/10 A3008 RMK A01 T03100099  RH  028%=      5-min Rain = 0
KFLS 120620Z 27006KT 31/10 A3008 RMK A01 T03050099  RH  028%=      5-min Rain = 0
KFLS 120625Z 28007KT 30/10 A3007 RMK A01 T02990099  RH  029%=      5-min Rain = 0
KFLS 120630Z 27004KT 30/10 A3008 RMK A01 T02960099  RH  030%=      5-min Rain = 0
KFLS 120635Z 27003KT 29/10 A3008 RMK A01 T02940099  RH  030%=      5-min Rain = 0
KFLS 120640Z 27002KT 29/10 A3008 RMK A01 T02890098  RH  031%=      5-min Rain = 0
KFLS 120645Z 25003KT 29/10 A3008 RMK A01 T02900097  RH  031%=      5-min Rain = 0
KFLS 120650Z 21004KT 29/10 A3007 RMK A01 T02880098  RH  031%=      5-min Rain = 0
KFLS 120655Z 20005KT 28/10 A3007 RMK A01 T02800100  RH  033%=      5-min Rain = 0
KFLS 120700Z 20006KT 28/10 A3007 RMK A01 T02760101  RH  034%=      5-min Rain = 0
KFLS 120705Z 20007KT 28/10 A3007 RMK A01 T02760101  RH  034%=      5-min Rain = 0
KFLS 120710Z 20006KT 28/10 A3007 RMK A01 T02770101  RH  034%=      5-min Rain = 0
KFLS 120715Z 21005KT 29/10 A3006 RMK A01 T02850098  RH  032%=      5-min Rain = 0
KFLS 120720Z 22005KT 29/10 A3007 RMK A01 T02930099  RH  031%=      5-min Rain = 0
KFLS 120725Z 22005KT 29/10 A3007 RMK A01 T02910100  RH  031%=      5-min Rain = 0
KFLS 120730Z 21006KT 29/10 A3006 RMK A01 T02890100  RH  031%=      5-min Rain = 0
KFLS 120735Z 20007KT 28/10 A3006 RMK A01 T02820103  RH  033%=      5-min Rain = 0
KFLS 120740Z 20007KT 27/10 A3005 RMK A01 T02740104  RH  035%=      5-min Rain = 0
KFLS 120745Z 24008G15KT 28/10 A3006 RMK A01 T02790102  RH  034%=      5-min Rain = 0
KFLS 120750Z 30011G17KT 28/10 A3007 RMK A01 T02840099  RH  032%=      5-min Rain = 0
KFLS 120755Z 30008KT 28/10 A3006 RMK A01 T02800098  RH  032%=      5-min Rain = 0
KFLS 120800Z 31007KT 28/10 A3005 RMK A01 T02800098  RH  033%=      5-min Rain = 0
KFLS 120805Z 32006KT 27/10 A3005 RMK A01 T02740101  RH  035%=      5-min Rain = 0
KFLS 120810Z 34006KT 28/10 A3004 RMK A01 T02760104  RH  035%=      5-min Rain = 0
KFLS 120815Z 35004KT 28/11 A3004 RMK A01 T02760105  RH  035%=      5-min Rain = 0
KFLS 120820Z 02003KT 27/11 A3003 RMK A01 T02730105  RH  036%=      5-min Rain = 0
KFLS 120825Z 09001KT 27/11 A3003 RMK A01 T02650107  RH  038%=      5-min Rain = 0
KFLS 120830Z 13008KT 26/10 A3003 RMK A01 T02600104  RH  038%=      5-min Rain = 0
KFLS 120835Z 14007KT 26/10 A3003 RMK A01 T02560102  RH  038%=      5-min Rain = 0
KFLS 120840Z 14009KT 26/10 A3002 RMK A01 T02600101  RH  037%=      5-min Rain = 0
KFLS 120845Z 14008KT 27/10 A3003 RMK A01 T02650100  RH  036%=      5-min Rain = 0
KFLS 120850Z 14008KT 27/10 A3002 RMK A01 T02660102  RH  036%=      5-min Rain = 0
KFLS 120855Z 14007KT 27/10 A3002 RMK A01 T02660103  RH  037%=      5-min Rain = 0
KFLS 120900Z 14007KT 26/10 A3002 RMK A01 T02640104  RH  037%=      5-min Rain = 0
KFLS 120905Z 15007KT 26/11 A3002 RMK A01 T02640106  RH  038%=      5-min Rain = 0
KFLS 120910Z 16007KT 27/11 A3002 RMK A01 T02680107  RH  037%=      5-min Rain = 0
KFLS 120915Z 16006KT 27/11 A3002 RMK A01 T02710107  RH  037%=      5-min Rain = 0
KFLS 120920Z 18006KT 27/11 A3002 RMK A01 T02700107  RH  037%=      5-min Rain = 0
KFLS 120925Z 18007KT 27/11 A3002 RMK A01 T02690107  RH  037%=      5-min Rain = 0
KFLS 120930Z 18006KT 27/11 A3002 RMK A01 T02720108  RH  036%=      5-min Rain = 0
KFLS 120935Z 18006KT 27/11 A3002 RMK A01 T02730108  RH  036%=      5-min Rain = 0
KFLS 120940Z 18006KT 28/11 A3002 RMK A01 T02750106  RH  035%=      5-min Rain = 0
KFLS 120945Z 19006KT 28/11 A3002 RMK A01 T02750107  RH  036%=      5-min Rain = 0
KFLS 120950Z 18005KT 27/11 A3002 RMK A01 T02740107  RH  036%=      5-min Rain = 0
KFLS 120955Z 17003KT 28/11 A3002 RMK A01 T02750107  RH  036%=      5-min Rain = 0
KFLS 121000Z 13002KT 27/11 A3002 RMK A01 T02740106  RH  036%=      5-min Rain = 0
KFLS 121005Z 06005KT 26/11 A3003 RMK A01 T02590111  RH  040%=      5-min Rain = 0
KFLS 121010Z 06005KT 25/11 A3003 RMK A01 T02520113  RH  043%=      5-min Rain = 0
KFLS 121015Z 04004KT 25/11 A3003 RMK A01 T02520113  RH  043%=      5-min Rain = 0
KFLS 121020Z 02003KT 25/12 A3003 RMK A01 T02530115  RH  043%=      5-min Rain = 0
KFLS 121025Z 03006KT 26/11 A3003 RMK A01 T02550114  RH  042%=      5-min Rain = 0
KFLS 121030Z 04006KT 26/11 A3003 RMK A01 T02580112  RH  041%=      5-min Rain = 0
KFLS 121035Z 00002KT 26/11 A3003 RMK A01 T02630109  RH  039%=      5-min Rain = 0
KFLS 121040Z 20004G10KT 26/11 A3003 RMK A01 T02640106  RH  038%=      5-min Rain = 0
KFLS 121045Z 22006KT 28/10 A3003 RMK A01 T02810098  RH  032%=      5-min Rain = 0
KFLS 121050Z 22005KT 28/10 A3003 RMK A01 T02770100  RH  034%=      5-min Rain = 0
KFLS 121055Z 21006KT 26/11 A3003 RMK A01 T02640106  RH  038%=      5-min Rain = 0
KFLS 121100Z 19005KT 26/11 A3004 RMK A01 T02600106  RH  039%=      5-min Rain = 0
KFLS 121105Z 18003KT 26/10 A3004 RMK A01 T02640104  RH  037%=      5-min Rain = 0
KFLS 121110Z 09005KT 26/10 A3004 RMK A01 T02560103  RH  039%=      5-min Rain = 0
KFLS 121115Z 10006KT 25/10 A3004 RMK A01 T02520104  RH  040%=      5-min Rain = 0
KFLS 121120Z 11007KT 25/11 A3004 RMK A01 T02530105  RH  040%=      5-min Rain = 0
KFLS 121125Z 12008KT 26/11 A3004 RMK A01 T02600106  RH  039%=      5-min Rain = 0
KFLS 121130Z 10008KT 26/11 A3004 RMK A01 T02600107  RH  039%=      5-min Rain = 0
KFLS 121135Z 10011KT 26/11 A3004 RMK A01 T02600108  RH  039%=      5-min Rain = 0
KFLS 121140Z 12011KT 27/11 A3004 RMK A01 T02670107  RH  037%=      5-min Rain = 0
KFLS 121145Z 14009KT 28/10 A3005 RMK A01 T02770102  RH  034%=      5-min Rain = 0
KFLS 121150Z 13011KT 28/10 A3005 RMK A01 T02830101  RH  033%=      5-min Rain = 0
KFLS 121155Z 12012KT 28/11 A3006 RMK A01 T02750107  RH  036%=      5-min Rain = 0
KFLS 121200Z 11011KT 27/11 A3007 RMK A01 T02730108  RH  036%=      5-min Rain = 0
KFLS 121205Z 11012KT 27/11 A3008 RMK A01 T02740108  RH  036%=      5-min Rain = 0
KFLS 121210Z 10011KT 27/11 A3008 RMK A01 T02740108  RH  036%=      5-min Rain = 0
KFLS 121215Z 10012KT 28/11 A3008 RMK A01 T02760108  RH  036%=      5-min Rain = 0
KFLS 121220Z 11014G19KT 28/11 A3008 RMK A01 T02780108  RH  035%=      5-min Rain = 0
KFLS 121225Z 12014KT 28/12 A3008 RMK A01 T02770115  RH  037%=      5-min Rain = 0
KFLS 121230Z 13013KT 27/12 A3008 RMK A01 T02730120  RH  040%=      5-min Rain = 0
KFLS 121235Z 13014KT 27/12 A3007 RMK A01 T02730124  RH  040%=      5-min Rain = 0
KFLS 121240Z 14013G18KT 27/13 A3007 RMK A01 T02690131  RH  043%=      5-min Rain = 0
KFLS 121245Z 14011KT 27/14 A3007 RMK A01 T02690135  RH  044%=      5-min Rain = 0
KFLS 121250Z 14010KT 27/14 A3007 RMK A01 T02700139  RH  045%=      5-min Rain = 0
KFLS 121255Z 15009KT 27/14 A3008 RMK A01 T02710141  RH  046%=      5-min Rain = 0
KFLS 121300Z 15009KT 27/14 A3008 RMK A01 T02740139  RH  044%=      5-min Rain = 0
KFLS 121305Z 15009KT 28/13 A3008 RMK A01 T02790133  RH  041%=      5-min Rain = 0
KFLS 121310Z 15009KT 28/13 A3008 RMK A01 T02830128  RH  039%=      5-min Rain = 0
KFLS 121315Z 16010KT 29/13 A3008 RMK A01 T02910127  RH  037%=      5-min Rain = 0
KFLS 121320Z 16010KT 30/12 A3008 RMK A01 T02960124  RH  035%=      5-min Rain = 0
KFLS 121325Z 17011KT 30/12 A3008 RMK A01 T02980122  RH  035%=      5-min Rain = 0
KFLS 121330Z 17011KT 30/12 A3008 RMK A01 T02970122  RH  035%=      5-min Rain = 0
KFLS 121335Z 17012KT 30/12 A3008 RMK A01 T02970124  RH  035%=      5-min Rain = 0
KFLS 121340Z 17012KT 30/12 A3008 RMK A01 T02990123  RH  034%=      5-min Rain = 0
KFLS 121345Z 17012KT 30/12 A3008 RMK A01 T03020123  RH  034%=      5-min Rain = 0
KFLS 121350Z 17013KT 30/12 A3008 RMK A01 T03010123  RH  034%=      5-min Rain = 0
KFLS 121355Z 17013KT 30/13 A3009 RMK A01 T03010125  RH  034%=      5-min Rain = 0
KFLS 121400Z 18013G18KT 30/13 A3008 RMK A01 T03000127  RH  035%=      5-min Rain = 0
KFLS 121405Z 16013G18KT 30/13 A3009 RMK A01 T03020128  RH  035%=      5-min Rain = 0
KFLS 121410Z 16014G19KT 30/13 A3009 RMK A01 T03030129  RH  035%=      5-min Rain = 0
KFLS 121415Z 17013KT 31/13 A301 RMK A01 T03050131  RH  035%=      5-min Rain = 0
KFLS 121420Z 17012KT 30/13 A301 RMK A01 T03030132  RH  036%=      5-min Rain = 0
KFLS 121425Z 17015KT 30/13 A301 RMK A01 T03010132  RH  036%=      5-min Rain = 0
KFLS 121430Z 17013KT 30/13 A301 RMK A01 T03020133  RH  036%=      5-min Rain = 0
KFLS 121435Z 17014KT 30/13 A301 RMK A01 T03030131  RH  036%=      5-min Rain = 0
KFLS 121440Z 17015KT 31/13 A301 RMK A01 T03050130  RH  035%=      5-min Rain = 0
KFLS 121445Z 16016KT 31/13 A301 RMK A01 T03060129  RH  034%=      5-min Rain = 0
KFLS 121450Z 16014KT 31/13 A301 RMK A01 T03110132  RH  034%=      5-min Rain = 0
KFLS 121455Z 16012G17KT 32/13 A301 RMK A01 T03150129  RH  033%=      5-min Rain = 0
KFLS 121500Z 16013KT 32/13 A3009 RMK A01 T03200126  RH  031%=      5-min Rain = 0
KFLS 121505Z 16015KT 32/13 A3009 RMK A01 T03200125  RH  031%=      5-min Rain = 0
KFLS 121510Z 16013G20KT 32/13 A3009 RMK A01 T03240129  RH  031%=      5-min Rain = 0
KFLS 121515Z 17015KT 33/12 A3009 RMK A01 T03270115  RH  028%=      5-min Rain = 0
KFLS 121520Z 17016KT 33/11 A3008 RMK A01 T03300109  RH  026%=      5-min Rain = 0
KFLS 121525Z 16017KT 33/10 A3007 RMK A01 T03310103  RH  025%=      5-min Rain = 0
KFLS 121530Z 17014G21KT 34/11 A3007 RMK A01 T03350105  RH  025%=      5-min Rain = 0
KFLS 121535Z 16015G20KT 34/11 A3007 RMK A01 T03370106  RH  025%=      5-min Rain = 0
KFLS 121540Z 16015KT 34/11 A3006 RMK A01 T03360106  RH  025%=      5-min Rain = 0
KFLS 121545Z 17015KT 34/11 A3006 RMK A01 T03370108  RH  025%=      5-min Rain = 0
KFLS 121550Z 17012G17KT 34/11 A3006 RMK A01 T03400109  RH  025%=      5-min Rain = 0
KFLS 121555Z 18014KT 35/11 A3006 RMK A01 T03450106  RH  024%=      5-min Rain = 0
KFLS 121600Z 18013KT 34/11 A3006 RMK A01 T03430106  RH  024%=      5-min Rain = 0
KFLS 121605Z 19014KT 34/11 A3006 RMK A01 T03440105  RH  024%=      5-min Rain = 0
KFLS 121610Z 19013G18KT 35/10 A3005 RMK A01 T03450104  RH  024%=      5-min Rain = 0
KFLS 121615Z 19011G17KT 35/11 A3005 RMK A01 T03490106  RH  023%=      5-min Rain = 0
KFLS 121620Z 18013KT 36/10 A3005 RMK A01 T03550100  RH  022%=      5-min Rain = 0
KFLS 121625Z 18013KT 35/10 A3005 RMK A01 T03540100  RH  022%=      5-min Rain = 0
KFLS 121630Z 19012KT 37/10 A3005 RMK A01 T03650098  RH  020%=      5-min Rain = 0
KFLS 121635Z 19012G17KT 37/10 A3006 RMK A01 T03650101  RH  021%=      5-min Rain = 0
KFLS 121640Z 18014G19KT 36/10 A3006 RMK A01 T03590099  RH  021%=      5-min Rain = 0
KFLS 121645Z 19013G20KT 36/10 A3005 RMK A01 T03590098  RH  021%=      5-min Rain = 0
KFLS 121650Z 17013G20KT 37/09 A3005 RMK A01 T03690093  RH  019%=      5-min Rain = 0
KFLS 121655Z 19014KT 37/09 A3005 RMK A01 T03730091  RH  018%=      5-min Rain = 0
KFLS 121700Z 18014KT 37/10 A3005 RMK A01 T03670095  RH  020%=      5-min Rain = 0
KFLS 121705Z 18015KT 37/09 A3005 RMK A01 T03670094  RH  019%=      5-min Rain = 0
KFLS 121710Z 20014G19KT 36/10 A3005 RMK A01 T03640098  RH  020%=      5-min Rain = 0
KFLS 121715Z 19014G20KT 37/10 A3005 RMK A01 T03700097  RH  019%=      5-min Rain = 0
KFLS 121720Z 19014G20KT 36/10 A3005 RMK A01 T03640099  RH  020%=      5-min Rain = 0
KFLS 121725Z 19016G21KT 36/10 A3005 RMK A01 T03640100  RH  021%=      5-min Rain = 0
KFLS 121730Z 18015G20KT 37/10 A3005 RMK A01 T03650101  RH  021%=      5-min Rain = 0
KFLS 121735Z 19015G21KT 37/11 A3004 RMK A01 T03670105  RH  021%=      5-min Rain = 0
KFLS 121740Z 16014G19KT 37/10 A3004 RMK A01 T03690103  RH  020%=      5-min Rain = 0
KFLS 121745Z 17016G21KT 37/10 A3004 RMK A01 T03720096  RH  019%=      5-min Rain = 0
KFLS 121750Z 17016G23KT 38/10 A3004 RMK A01 T03760095  RH  019%=      5-min Rain = 0
KFLS 121755Z 18018G23KT 37/08 A3004 RMK A01 T03730079  RH  017%=      5-min Rain = 0
KFLS 121800Z 19016G23KT 37/08 A3004 RMK A01 T03710079  RH  017%=      5-min Rain = 0
KFLS 121805Z 19016G22KT 37/08 A3004 RMK A01 T03730078  RH  017%=      5-min Rain = 0
KFLS 121810Z 18016G22KT 37/07 A3004 RMK A01 T03720074  RH  016%=      5-min Rain = 0
KFLS 121815Z 18016G21KT 38/08 A3004 RMK A01 T03770076  RH  016%=      5-min Rain = 0
KFLS 121820Z 18016G21KT 38/08 A3003 RMK A01 T03770079  RH  017%=      5-min Rain = 0
KFLS 121825Z 19016G21KT 38/08 A3003 RMK A01 T03790084  RH  017%=      5-min Rain = 0
KFLS 121830Z 18016G23KT 38/09 A3003 RMK A01 T03780086  RH  017%=      5-min Rain = 0
KFLS 121835Z 19017G24KT 38/08 A3003 RMK A01 T03780084  RH  017%=      5-min Rain = 0
KFLS 121840Z 18017G23KT 38/09 A3002 RMK A01 T03770087  RH  018%=      5-min Rain = 0
KFLS 121845Z 19016G25KT 38/08 A3002 RMK A01 T03830082  RH  016%=      5-min Rain = 0
KFLS 121850Z 18018KT 39/08 A3002 RMK A01 T03850078  RH  016%=      5-min Rain = 0
KFLS 121855Z 18017G24KT 39/08 A3002 RMK A01 T03880078  RH  016%=      5-min Rain = 0
KFLS 121900Z 18018G23KT 39/07 A3001 RMK A01 T03850074  RH  015%=      5-min Rain = 0
KFLS 121905Z 18017G22KT 38/08 A3001 RMK A01 T03840078  RH  016%=      5-min Rain = 0
KFLS 121910Z 18016G22KT 39/07 A3001 RMK A01 T03870072  RH  015%=      5-min Rain = 0
KFLS 121915Z 17018G25KT 39/07 A3001 RMK A01 T03860074  RH  015%=      5-min Rain = 0
KFLS 121920Z 18017G23KT 38/07 A30 RMK A01 T03840067  RH  015%=      5-min Rain = 0
KFLS 121925Z 18018G23KT 39/06 A30 RMK A01 T03890063  RH  014%=      5-min Rain = 0
KFLS 121930Z 19018G26KT 39/06 A30 RMK A01 T03900060  RH  014%=      5-min Rain = 0
KFLS 121935Z 18018G26KT 39/06 A2999 RMK A01 T03920061  RH  014%=      5-min Rain = 0
KFLS 121940Z 18019KT 39/06 A2999 RMK A01 T03920056  RH  013%=      5-min Rain = 0
KFLS 121945Z 19017G24KT 39/06 A2999 RMK A01 T03900058  RH  013%=      5-min Rain = 0
KFLS 121950Z 18017G26KT 39/06 A2998 RMK A01 T03940058  RH  013%=      5-min Rain = 0
KFLS 121955Z 18018G27KT 40/05 A2998 RMK A01 T03960047  RH  012%=      5-min Rain = 0
KFLS 122000Z 19019G24KT 39/05 A2998 RMK A01 T03910045  RH  012%=      5-min Rain = 0
KFLS 122005Z 18019G25KT 40/04 A2998 RMK A01 T03960043  RH  012%=      5-min Rain = 0
KFLS 122010Z 19017G23KT 40/04 A2998 RMK A01 T03980044  RH  012%=      5-min Rain = 0
KFLS 122015Z 19019G24KT 40/02 A2998 RMK A01 T03990020  RH  010%=      5-min Rain = 0
KFLS 122020Z 19018G23KT 40/02 A2998 RMK A01 T04000019  RH  010%=      5-min Rain = 0
KFLS 122025Z 20017KT 40/03 A2997 RMK A01 T03990027  RH  010%=      5-min Rain = 0
KFLS 122030Z 19017G22KT 40/03 A2997 RMK A01 T04020026  RH  010%=      5-min Rain = 0
KFLS 122035Z 19018G23KT 40/03 A2997 RMK A01 T04000025  RH  010%=      5-min Rain = 0
KFLS 122040Z 18018G23KT 40/03 A2997 RMK A01 T03970033  RH  011%=      5-min Rain = 0
KFLS 122045Z 19017G22KT 40/04 A2996 RMK A01 T04010036  RH  011%=      5-min Rain = 0
KFLS 122050Z 20017G22KT 40/04 A2996 RMK A01 T04000039  RH  011%=      5-min Rain = 0
KFLS 122055Z 19015G22KT 40/03 A2996 RMK A01 T04000027  RH  010%=      5-min Rain = 0
KFLS 122100Z 18017G22KT 40/02 A2996 RMK A01 T04020023  RH  010%=      5-min Rain = 0
KFLS 122105Z 19015G24KT 40/02 A2996 RMK A01 T04010023  RH  010%=      5-min Rain = 0
KFLS 122110Z 20016G21KT 40/01 A2996 RMK A01 T04030014  RH  009%=      5-min Rain = 0
KFLS 122115Z 20014KT 40/02 A2995 RMK A01 T04020016  RH  009%=      5-min Rain = 0
KFLS 122120Z 20016G22KT 40/01 A2995 RMK A01 T04020010  RH  009%=      5-min Rain = 0
KFLS 122125Z 21014KT 40/01 A2995 RMK A01 T04000011  RH  009%=      5-min Rain = 0
KFLS 122130Z 19015G22KT 40/00 A2995 RMK A01 T04030004  RH  009%=      5-min Rain = 0
KFLS 122135Z 19015G24KT 40/00 A2995 RMK A01 T04040001  RH  008%=      5-min Rain = 0
KFLS 122140Z 19016G21KT 41/00 A2994 RMK A01 T040500-0  RH  008%=      5-min Rain = 0
KFLS 122145Z 19017G22KT 40/M00 A2994 RMK A01 T04031001  RH  008%=      5-min Rain = 0
KFLS 122150Z 19016G23KT 40/M00 A2994 RMK A01 T04021001  RH  008%=      5-min Rain = 0
KFLS 122155Z 19015G20KT 41/M00 A2994 RMK A01 T04051001  RH  008%=      5-min Rain = 0
KFLS 122200Z 20016G23KT 41/00 A2994 RMK A01 T04070002  RH  008%=      5-min Rain = 0
KFLS 122205Z 20017KT 41/M00 A2994 RMK A01 T04051002  RH  008%=      5-min Rain = 0
KFLS 122210Z 21015G20KT 40/M00 A2994 RMK A01 T04021004  RH  008%=      5-min Rain = 0
KFLS 122215Z 20013G18KT 40/M01 A2994 RMK A01 T04031006  RH  008%=      5-min Rain = 0
KFLS 122220Z 21013G18KT 40/M00 A2994 RMK A01 T04041002  RH  008%=      5-min Rain = 0
KFLS 122225Z 20011KT 40/00 A2993 RMK A01 T04030001  RH  008%=      5-min Rain = 0
KFLS 122230Z 20013G19KT 41/M00 A2993 RMK A01 T04061001  RH  008%=      5-min Rain = 0
KFLS 122235Z 20014G21KT 40/00 A2993 RMK A01 T04040001  RH  008%=      5-min Rain = 0
KFLS 122240Z 19011G16KT 40/00 A2993 RMK A01 T04040003  RH  008%=      5-min Rain = 0
KFLS 122245Z 18017G22KT 41/00 A2993 RMK A01 T04050003  RH  008%=      5-min Rain = 0
KFLS 122250Z 19015KT 40/01 A2993 RMK A01 T04030005  RH  009%=      5-min Rain = 0
KFLS 122255Z 18014KT 40/01 A2993 RMK A01 T04000005  RH  009%=      5-min Rain = 0
KFLS 122300Z 18014G19KT 40/01 A2992 RMK A01 T04030011  RH  009%=      5-min Rain = 0
KFLS 122305Z 18013G20KT 40/01 A2992 RMK A01 T04040013  RH  009%=      5-min Rain = 0
KFLS 122310Z 18016KT 40/01 A2992 RMK A01 T04010012  RH  009%=      5-min Rain = 0
KFLS 122315Z 17015G20KT 40/01 A2992 RMK A01 T04010012  RH  009%=      5-min Rain = 0
KFLS 122320Z 18012G17KT 40/01 A2992 RMK A01 T04000012  RH  009%=      5-min Rain = 0
KFLS 122325Z 18013G18KT 40/01 A2992 RMK A01 T04000011  RH  009%=      5-min Rain = 0
KFLS 122330Z 18017G22KT 40/01 A2992 RMK A01 T04020011  RH  009%=      5-min Rain = 0
KFLS 122335Z 18013G19KT 40/01 A2992 RMK A01 T04000012  RH  009%=      5-min Rain = 0
KFLS 122340Z 18015G21KT 40/01 A2992 RMK A01 T04010012  RH  009%=      5-min Rain = 0
KFLS 122345Z 19016G21KT 40/01 A2992 RMK A01 T03960011  RH  009%=      5-min Rain = 0
KFLS 122350Z 18014G19KT 40/01 A2991 RMK A01 T03980012  RH  009%=      5-min Rain = 0
KFLS 122355Z 18014G19KT 40/01 A2991 RMK A01 T03970013  RH  009%=      5-min Rain = 0
KFLS 130000Z 17017G22KT 39/01 A2991 RMK A01 T03940012  RH  009%=      5-min Rain = 0
KFLS 130005Z 18016G23KT 39/01 A2991 RMK A01 T03940014  RH  010%=      5-min Rain = 0
KFLS 130010Z 19014KT 39/02 A2991 RMK A01 T03930015  RH  010%=      5-min Rain = 0
KFLS 130015Z 19016G21KT 39/01 A2991 RMK A01 T03910012  RH  010%=      5-min Rain = 0
KFLS 130020Z 18014KT 39/01 A2991 RMK A01 T03900012  RH  010%=      5-min Rain = 0
KFLS 130025Z 18015KT 39/01 A2991 RMK A01 T03900013  RH  010%=      5-min Rain = 0
KFLS 130030Z 18014G19KT 39/01 A2991 RMK A01 T03890012  RH  010%=      5-min Rain = 0
KFLS 130035Z 18015KT 39/01 A2991 RMK A01 T03870012  RH  010%=      5-min Rain = 0
KFLS 130040Z 17013KT 39/01 A2991 RMK A01 T03860014  RH  010%=      5-min Rain = 0
KFLS 130045Z 18015KT 38/01 A2991 RMK A01 T03810012  RH  010%=      5-min Rain = 0
KFLS 130050Z 17015KT 38/02 A2991 RMK A01 T03780018  RH  011%=      5-min Rain = 0
KFLS 130055Z 18014G19KT 38/02 A2991 RMK A01 T03780022  RH  011%=      5-min Rain = 0
KFLS 130100Z 18014KT 38/02 A2991 RMK A01 T03770022  RH  011%=      5-min Rain = 0
KFLS 130105Z 17014G20KT 38/03 A2991 RMK A01 T03760025  RH  011%=      5-min Rain = 0
KFLS 130110Z 17012G19KT 37/03 A2991 RMK A01 T03740029  RH  012%=      5-min Rain = 0
KFLS 130115Z 17013G19KT 37/03 A2991 RMK A01 T03710031  RH  012%=      5-min Rain = 0
KFLS 130120Z 17012KT 37/03 A2991 RMK A01 T03690033  RH  013%=      5-min Rain = 0
KFLS 130125Z 16012KT 37/04 A2991 RMK A01 T03650036  RH  013%=      5-min Rain = 0
KFLS 130130Z 16012KT 36/04 A2991 RMK A01 T03620037  RH  013%=      5-min Rain = 0
KFLS 130135Z 17011KT 36/04 A2991 RMK A01 T03600037  RH  014%=      5-min Rain = 0
KFLS 130140Z 17011KT 36/04 A2991 RMK A01 T03570038  RH  014%=      5-min Rain = 0
KFLS 130145Z 17010KT 35/04 A2991 RMK A01 T03530039  RH  014%=      5-min Rain = 0
KFLS 130150Z 16010G15KT 35/04 A2991 RMK A01 T03490040  RH  015%=      5-min Rain = 0
KFLS 130155Z 17012KT 35/04 A2991 RMK A01 T03490040  RH  015%=      5-min Rain = 0
KFLS 130200Z 17011KT 35/04 A2991 RMK A01 T03450041  RH  015%=      5-min Rain = 0
KFLS 130205Z 16011KT 34/04 A2991 RMK A01 T03440042  RH  015%=      5-min Rain = 0
KFLS 130210Z 16010KT 34/04 A2991 RMK A01 T03400043  RH  016%=      5-min Rain = 0
KFLS 130215Z 16010KT 34/04 A2991 RMK A01 T03370044  RH  016%=      5-min Rain = 0
KFLS 130220Z 16009KT 34/05 A2991 RMK A01 T03350045  RH  017%=      5-min Rain = 0
KFLS 130225Z 16009KT 33/05 A2991 RMK A01 T03310047  RH  017%=      5-min Rain = 0
KFLS 130230Z 16009KT 33/05 A2991 RMK A01 T03280048  RH  018%=      5-min Rain = 0
KFLS 130235Z 16009KT 33/05 A2991 RMK A01 T03260049  RH  018%=      5-min Rain = 0
KFLS 130240Z 16008KT 32/05 A2992 RMK A01 T03220049  RH  018%=      5-min Rain = 0
KFLS 130245Z 16008KT 32/05 A2992 RMK A01 T03190050  RH  019%=      5-min Rain = 0
KFLS 130250Z 16008KT 32/05 A2992 RMK A01 T03170051  RH  019%=      5-min Rain = 0
KFLS 130255Z 16008KT 32/05 A2992 RMK A01 T03160050  RH  019%=      5-min Rain = 0
KFLS 130300Z 15008KT 32/05 A2992 RMK A01 T03150050  RH  019%=      5-min Rain = 0
KFLS 130305Z 16007KT 31/05 A2992 RMK A01 T03110050  RH  020%=      5-min Rain = 0
KFLS 130310Z 15007KT 31/05 A2992 RMK A01 T03080051  RH  020%=      5-min Rain = 0
KFLS 130315Z 15007KT 30/05 A2992 RMK A01 T03030053  RH  021%=      5-min Rain = 0
KFLS 130320Z 15006KT 30/06 A2993 RMK A01 T03000055  RH  022%=      5-min Rain = 0
KFLS 130325Z 15005KT 30/06 A2993 RMK A01 T02980055  RH  022%=      5-min Rain = 0
KFLS 130330Z 14005KT 30/06 A2994 RMK A01 T02970056  RH  022%=      5-min Rain = 0
KFLS 130335Z 14005KT 30/05 A2994 RMK A01 T02970054  RH  022%=      5-min Rain = 0
KFLS 130340Z 14006KT 29/05 A2994 RMK A01 T02930054  RH  022%=      5-min Rain = 0
KFLS 130345Z 14006KT 29/06 A2994 RMK A01 T02900055  RH  023%=      5-min Rain = 0
KFLS 130350Z 14005KT 29/06 A2994 RMK A01 T02880056  RH  023%=      5-min Rain = 0
KFLS 130355Z 14006KT 29/06 A2994 RMK A01 T02860057  RH  024%=      5-min Rain = 0
KFLS 130400Z 14006KT 28/06 A2994 RMK A01 T02820058  RH  024%=      5-min Rain = 0
KFLS 130405Z 13005KT 28/06 A2994 RMK A01 T02810061  RH  025%=      5-min Rain = 0
KFLS 130410Z 13005KT 28/06 A2994 RMK A01 T02830060  RH  025%=      5-min Rain = 0
KFLS 130415Z 13006KT 28/06 A2994 RMK A01 T02810060  RH  025%=      5-min Rain = 0
KFLS 130420Z 13006KT 28/06 A2994 RMK A01 T02810061  RH  025%=      5-min Rain = 0
KFLS 130425Z 13006KT 28/06 A2994 RMK A01 T02820061  RH  025%=      5-min Rain = 0
KFLS 130430Z 13006KT 28/06 A2994 RMK A01 T02800062  RH  025%=      5-min Rain = 0
KFLS 130435Z 13005KT 28/06 A2995 RMK A01 T02770063  RH  026%=      5-min Rain = 0
KFLS 130440Z 14006KT 28/06 A2995 RMK A01 T02760063  RH  026%=      5-min Rain = 0
KFLS 130445Z 13005KT 28/06 A2995 RMK A01 T02770063  RH  026%=      5-min Rain = 0
KFLS 130450Z 13005KT 28/06 A2995 RMK A01 T02760064  RH  026%=      5-min Rain = 0
KFLS 130455Z 13005KT 27/07 A2996 RMK A01 T02730066  RH  027%=      5-min Rain = 0

Page generated in 0.0093 seconds.